Carmel, ME

4:29 AM EDT on July 08, 2015 (GMT -0400)
Hermon Center | | Change Station
CLOSE
Current Station
Personal Weather Station
Location: Hermon, ME
Elevation: 145 ft
Nearby Weather Stations

Elev 145 ft 44.81 °N, 68.91 °W | Updated 9 seconds ago

Fog
Fog
65.1 °F
Feels Like 65.1 °F
N
2.0
Wind Variable Wind from South
Gusts 4.0 mph

Today
High -- | Low -- °F
--% Chance of Precip.
Yesterday
High -- | Low -- °F
Precip. -- in
4:58 AM 8:23 PM
Waning Gibbous, 56% visible
Pressure 29.82 in
Visibility 2.0 miles
Clouds Overcast 200 ft
Dew Point 64 °F
Humidity 96%
Rainfall 0.00 in
Snow Depth Not available.
UV 0 out of 12
Pollen 4.30 out of 12
Air Quality Not available.
Flu Activity Not available.
METAR KBGR 080753Z 18007KT 2SM BR OVC002 19/18 A2983 RMK AO2 SLP098 T01890183 $

More Conditions Fewer Conditions

Pressure 29.82 in
Visibility 2.0 miles
Clouds Overcast 200 ft
Dew Point 64 °F
Humidity 96%
Rainfall 0.00 in
Snow Depth Not available.
UV 0 out of 12
Pollen 4.30 out of 12
Air Quality Not available.
Flu Activity Not available.
METAR KBGR 080753Z 18007KT 2SM BR OVC002 19/18 A2983 RMK AO2 SLP098 T01890183 $

More Conditions Fewer Conditions

10-Day Weather Forecast

×

Almanac

Astronomy

Jul. 08, 2015 Rise Set
Actual Time
Civil Twilight
Nautical Twilight
Astronomical Twilight
Moon
Length of Visible Light
Length of Day
Tomorrow will be .
, % of the Moon is Illuminated

Today's Extremes

State Highs State Lows

Community

WunderPhotos

Upload Photos

1,836,087 photos uploaded!

WunderBlogs® & News

Nearby

Air Quality

  Air Quality AQ Index Pollutant
Not available.

Snow Depth

Station Depth Elevation

Earthquake Activity

City Distance Mag. Time & Date
Minimum magnitude displayed is 2.5.

Coastal Water Temperatures

Place Temperature

Stations

Nearby Weather Stations

Station Location Temp. Windchill Dew Point Humidity Wind Precip. Elev Updated Type